Time;durP1;ratioP1;P1;durP2;ratioP2;P2;SDS_P1;SDS_P2;PMS_P1;PMS_P2;Temp;Humidity;BMP_temperature;BMP_pressure;BME280_temperature;BME280_humidity;BME280_pressure;Samples;Min_cycle;Max_cycle;Signal;HPM_P1;HPM_P2
2022/12/09 00:01:36;;;;;;;40.47;14.30;;;;;;;;;;5000918;28;20850;-68
2022/12/09 00:04:03;;;;;;;51.63;11.57;;;;;;;;;;5010901;28;20478;-68
2022/12/09 00:06:30;;;;;;;32.73;13.90;;;;;;;;;;4993432;28;20446;-68
2022/12/09 00:08:56;;;;;;;38.90;13.37;;;;;;;;;;5009862;28;20485;-69
2022/12/09 00:11:23;;;;;;;47.03;12.13;;;;;;;;;;4993522;28;20849;-68
2022/12/09 00:13:51;;;;;;;39.87;13.50;;;;;;;;;;4993268;28;20442;-68
2022/12/09 00:16:17;;;;;;;41.77;14.67;;;;;;;;;;4993286;28;20870;-68
2022/12/09 00:18:44;;;;;;;42.90;15.57;;;;;;;;;;5010764;28;20435;-68
2022/12/09 00:21:17;;;;;;;44.20;14.80;;;;;;;;;;5010827;28;20431;-68
2022/12/09 00:23:43;;;;;;;40.97;12.73;;;;;;;;;;5009529;28;20474;-68
2022/12/09 00:26:10;;;;;;;51.30;14.50;;;;;;;;;;4993317;28;20502;-68
2022/12/09 00:28:37;;;;;;;43.90;16.83;;;;;;;;;;5026096;28;20430;-69
2022/12/09 00:31:04;;;;;;;42.47;14.37;;;;;;;;;;4996652;28;20477;-68
2022/12/09 00:33:31;;;;;;;45.63;14.33;;;;;;;;;;5012912;28;20430;-68
2022/12/09 00:36:04;;;;;;;44.00;13.67;;;;;;;;;;5030134;28;20493;-68
2022/12/09 00:38:31;;;;;;;45.33;15.20;;;;;;;;;;5021304;28;20442;-68
2022/12/09 00:40:57;;;;;;;47.70;13.87;;;;;;;;;;4992658;28;20941;-69
2022/12/09 00:43:24;;;;;;;49.53;14.37;;;;;;;;;;4992748;28;20901;-68
2022/12/09 00:46:08;;;;;;;35.87;13.27;;;;;;;;;;4992949;28;20426;-68
2022/12/09 00:48:38;;;;;;;36.37;12.27;;;;;;;;;;4992727;28;20433;-68
2022/12/09 00:51:23;;;;;;;50.33;12.90;;;;;;;;;;4979028;28;20911;-69
2022/12/09 00:53:53;;;;;;;61.80;13.33;;;;;;;;;;4992641;28;20449;-69
2022/12/09 00:56:37;;;;;;;39.90;13.30;;;;;;;;;;4996003;28;20893;-68
2022/12/09 00:59:04;;;;;;;33.20;12.63;;;;;;;;;;4992657;28;20439;-68
2022/12/09 01:01:31;;;;;;;31.77;11.53;;;;;;;;;;4992945;28;20530;-68
2022/12/09 01:03:58;;;;;;;29.33;10.43;;;;;;;;;;4976373;28;20438;-68
2022/12/09 01:06:25;;;;;;;32.43;10.80;;;;;;;;;;5010445;28;20439;-68
2022/12/09 01:08:52;;;;;;;28.30;10.43;;;;;;;;;;4976573;28;20438;-69
2022/12/09 01:11:26;;;;;;;24.93;10.63;;;;;;;;;;4980516;28;20451;-68
2022/12/09 01:13:53;;;;;;;28.97;11.10;;;;;;;;;;4990698;28;20431;-68
2022/12/09 01:16:20;;;;;;;27.17;12.40;;;;;;;;;;4990626;28;20503;-68
2022/12/09 01:18:47;;;;;;;30.33;12.47;;;;;;;;;;4973396;28;20456;-69
2022/12/09 01:21:17;;;;;;;29.17;13.17;;;;;;;;;;4976323;28;20423;-69
2022/12/09 01:23:43;;;;;;;29.87;11.17;;;;;;;;;;4976618;28;20444;-68
2022/12/09 01:26:10;;;;;;;31.47;14.27;;;;;;;;;;4982432;28;20951;-68
2022/12/09 01:28:37;;;;;;;25.60;11.13;;;;;;;;;;5011483;28;20993;-68
2022/12/09 01:31:05;;;;;;;27.63;10.47;;;;;;;;;;4999373;28;20453;-68
2022/12/09 01:33:32;;;;;;;22.33;8.83;;;;;;;;;;5033413;28;20449;-68
2022/12/09 01:36:20;;;;;;;20.87;9.83;;;;;;;;;;5015407;28;21177;-68
2022/12/09 01:38:47;;;;;;;26.67;11.43;;;;;;;;;;5033332;28;20939;-68
2022/12/09 01:41:31;;;;;;;29.37;10.70;;;;;;;;;;5018661;28;20434;-68
2022/12/09 01:44:07;;;;;;;25.10;10.97;;;;;;;;;;4981337;28;20529;-68
2022/12/09 01:46:34;;;;;;;29.17;10.10;;;;;;;;;;5013446;28;20477;-68
2022/12/09 01:49:00;;;;;;;27.47;10.87;;;;;;;;;;5013349;28;20445;-68
2022/12/09 01:51:27;;;;;;;28.33;11.30;;;;;;;;;;4995822;28;20519;-68
2022/12/09 01:53:56;;;;;;;33.20;11.10;;;;;;;;;;4995830;28;20945;-68
2022/12/09 01:56:24;;;;;;;25.33;10.40;;;;;;;;;;4995921;28;21052;-68
2022/12/09 01:58:51;;;;;;;26.63;10.43;;;;;;;;;;4963644;28;20439;-68
2022/12/09 02:01:17;;;;;;;23.80;9.93;;;;;;;;;;4995432;28;20447;-68
2022/12/09 02:03:45;;;;;;;24.10;9.87;;;;;;;;;;4979297;28;20470;-68
2022/12/09 02:06:13;;;;;;;30.47;10.97;;;;;;;;;;4995178;28;20446;-68
2022/12/09 02:08:41;;;;;;;75.97;21.33;;;;;;;;;;4995865;28;20448;-68
2022/12/09 02:11:08;;;;;;;103.97;24.90;;;;;;;;;;4959953;28;20462;-68
2022/12/09 02:14:16;;;;;;;90.10;20.40;;;;;;;;;;4975776;28;20482;-68
2022/12/09 02:17:12;;;;;;;54.13;14.60;;;;;;;;;;4936178;29;20460;-68
2022/12/09 02:19:46;;;;;;;32.27;10.03;;;;;;;;;;4975791;28;20448;-68
2022/12/09 02:22:39;;;;;;;26.67;10.33;;;;;;;;;;4992050;28;20439;-68
2022/12/09 02:25:16;;;;;;;31.63;11.33;;;;;;;;;;4992902;28;20440;-68
2022/12/09 02:28:06;;;;;;;47.10;15.13;;;;;;;;;;5013266;28;20475;-68
2022/12/09 02:30:38;;;;;;;48.07;16.30;;;;;;;;;;5002674;28;20562;-68
2022/12/09 02:33:09;;;;;;;65.87;17.90;;;;;;;;;;4975438;28;20915;-68
2022/12/09 02:35:38;;;;;;;55.03;17.93;;;;;;;;;;4975199;28;20482;-68
2022/12/09 02:38:07;;;;;;;38.63;14.00;;;;;;;;;;4975491;28;20484;-68
2022/12/09 02:40:54;;;;;;;48.70;15.33;;;;;;;;;;4992697;28;20434;-68
2022/12/09 02:43:43;;;;;;;44.07;12.97;;;;;;;;;;4975418;28;20438;-69
2022/12/09 02:46:18;;;;;;;37.77;12.87;;;;;;;;;;4977623;28;20862;-68
2022/12/09 02:48:47;;;;;;;32.17;12.00;;;;;;;;;;4995025;28;20434;-68
2022/12/09 02:51:15;;;;;;;31.00;11.63;;;;;;;;;;4978267;28;20974;-68
2022/12/09 02:53:42;;;;;;;30.37;12.90;;;;;;;;;;4978377;28;20495;-68
2022/12/09 02:56:10;;;;;;;30.03;11.03;;;;;;;;;;4978494;28;20544;-68
2022/12/09 02:58:38;;;;;;;31.97;12.00;;;;;;;;;;4978357;28;20953;-69
2022/12/09 03:01:05;;;;;;;27.40;10.93;;;;;;;;;;5012075;28;20430;-68
2022/12/09 03:03:33;;;;;;;27.87;11.93;;;;;;;;;;5002830;28;20559;-68
2022/12/09 03:06:07;;;;;;;32.33;13.00;;;;;;;;;;4959292;28;20467;-68
2022/12/09 03:08:39;;;;;;;33.10;11.10;;;;;;;;;;4959073;28;20448;-68
2022/12/09 03:11:07;;;;;;;36.37;11.40;;;;;;;;;;4992267;28;20503;-68
2022/12/09 03:13:37;;;;;;;26.37;11.57;;;;;;;;;;4974954;28;20967;-69
2022/12/09 03:16:15;;;;;;;28.53;11.20;;;;;;;;;;4974920;28;20476;-68
2022/12/09 03:18:44;;;;;;;31.80;11.13;;;;;;;;;;4975029;28;21011;-68
2022/12/09 03:21:11;;;;;;;32.27;12.07;;;;;;;;;;5007691;28;20553;-68
2022/12/09 03:23:37;;;;;;;29.80;11.53;;;;;;;;;;4994103;28;20465;-68
2022/12/09 03:26:22;;;;;;;25.93;10.53;;;;;;;;;;4996661;28;20411;-68
2022/12/09 03:28:49;;;;;;;27.77;10.77;;;;;;;;;;5028950;28;20456;-69
2022/12/09 03:31:34;;;;;;;24.50;10.77;;;;;;;;;;4999494;28;20432;-69
2022/12/09 03:34:01;;;;;;;26.27;10.83;;;;;;;;;;5013774;28;20486;-68
2022/12/09 03:36:46;;;;;;;27.70;10.83;;;;;;;;;;4977663;28;20602;-69
2022/12/09 03:39:13;;;;;;;28.00;11.37;;;;;;;;;;4974669;28;20428;-68
2022/12/09 03:41:43;;;;;;;20.73;10.27;;;;;;;;;;4974548;28;20478;-68
2022/12/09 03:44:12;;;;;;;24.87;9.60;;;;;;;;;;4975327;28;20440;-68
2022/12/09 03:46:38;;;;;;;22.93;10.20;;;;;;;;;;4989591;28;20459;-68
2022/12/09 03:49:22;;;;;;;20.47;8.40;;;;;;;;;;5008652;28;20460;-67
2022/12/09 03:52:11;;;;;;;23.90;8.87;;;;;;;;;;5013286;28;20498;-69
2022/12/09 03:54:58;;;;;;;19.80;8.10;;;;;;;;;;5007209;28;20554;-69
2022/12/09 03:57:25;;;;;;;18.93;8.33;;;;;;;;;;4989305;28;20998;-69
2022/12/09 03:59:53;;;;;;;21.83;9.13;;;;;;;;;;5009333;28;20458;-69
2022/12/09 04:02:21;;;;;;;22.13;8.23;;;;;;;;;;4992451;28;20481;-69
2022/12/09 04:04:47;;;;;;;19.57;8.43;;;;;;;;;;4991938;28;20435;-69
2022/12/09 04:07:15;;;;;;;17.70;8.33;;;;;;;;;;5008866;28;20472;-67
2022/12/09 04:09:42;;;;;;;20.30;7.93;;;;;;;;;;4986467;28;20452;-68
2022/12/09 04:12:10;;;;;;;19.50;7.83;;;;;;;;;;4991284;28;22413;-68
2022/12/09 04:14:37;;;;;;;20.20;8.13;;;;;;;;;;5009179;28;20440;-66
2022/12/09 04:17:04;;;;;;;18.77;7.80;;;;;;;;;;5009239;28;20508;-68
2022/12/09 04:19:31;;;;;;;18.77;7.80;;;;;;;;;;5012797;28;20893;-68
2022/12/09 04:22:15;;;;;;;16.93;7.10;;;;;;;;;;5005896;28;20794;-68
2022/12/09 04:24:42;;;;;;;19.57;7.30;;;;;;;;;;5007228;28;20453;-69
2022/12/09 04:27:26;;;;;;;15.60;7.23;;;;;;;;;;5014668;28;20425;-69
2022/12/09 04:29:53;;;;;;;21.33;7.40;;;;;;;;;;4988451;28;21329;-67
2022/12/09 04:32:21;;;;;;;28.50;8.50;;;;;;;;;;4987913;28;20442;-69
2022/12/09 04:34:48;;;;;;;23.07;8.33;;;;;;;;;;5008839;28;20968;-68
2022/12/09 04:37:15;;;;;;;22.77;8.73;;;;;;;;;;5008627;28;20696;-68
2022/12/09 04:39:42;;;;;;;26.13;9.20;;;;;;;;;;4995283;28;20500;-69
2022/12/09 04:42:09;;;;;;;24.63;9.83;;;;;;;;;;4991479;28;20455;-69
2022/12/09 04:44:36;;;;;;;26.60;9.87;;;;;;;;;;5007555;28;20445;-70
2022/12/09 04:47:21;;;;;;;22.63;7.63;;;;;;;;;;4993550;28;20992;-69
2022/12/09 04:49:48;;;;;;;23.80;8.77;;;;;;;;;;4980154;28;20439;-66
2022/12/09 04:52:18;;;;;;;25.60;10.13;;;;;;;;;;4988875;28;20494;-68
2022/12/09 04:54:45;;;;;;;24.17;9.60;;;;;;;;;;4988310;28;20465;-68
2022/12/09 04:57:12;;;;;;;22.13;10.33;;;;;;;;;;4991952;28;20446;-69
2022/12/09 04:59:56;;;;;;;24.83;10.53;;;;;;;;;;4991747;28;20759;-70
2022/12/09 05:02:23;;;;;;;24.77;9.27;;;;;;;;;;4989622;28;20454;-69
2022/12/09 05:04:50;;;;;;;22.77;9.23;;;;;;;;;;4966034;28;20531;-64
2022/12/09 05:07:18;;;;;;;22.97;9.37;;;;;;;;;;4973549;28;20437;-66
2022/12/09 05:09:45;;;;;;;23.30;9.27;;;;;;;;;;5008174;28;20521;-65
2022/12/09 05:12:11;;;;;;;30.53;9.20;;;;;;;;;;4992682;28;20438;-68
2022/12/09 05:14:38;;;;;;;28.40;9.93;;;;;;;;;;4991965;28;20447;-68
2022/12/09 05:17:06;;;;;;;35.70;10.17;;;;;;;;;;4985860;28;20572;-68
2022/12/09 05:19:33;;;;;;;32.67;8.93;;;;;;;;;;4996778;28;20431;-69
2022/12/09 05:21:59;;;;;;;24.20;9.63;;;;;;;;;;4992425;28;21410;-67
2022/12/09 05:24:26;;;;;;;24.13;8.83;;;;;;;;;;4992862;28;20420;-68
2022/12/09 05:26:53;;;;;;;32.80;10.13;;;;;;;;;;4994031;28;20548;-69
2022/12/09 05:29:20;;;;;;;26.50;9.87;;;;;;;;;;4992832;28;20446;-70
2022/12/09 05:31:50;;;;;;;28.00;10.13;;;;;;;;;;4982408;28;20449;-70
2022/12/09 05:34:18;;;;;;;26.87;11.50;;;;;;;;;;4973537;28;20454;-71
2022/12/09 05:36:45;;;;;;;25.67;10.07;;;;;;;;;;4992053;28;20474;-68
2022/12/09 05:39:12;;;;;;;27.40;10.17;;;;;;;;;;4987469;28;20447;-69
2022/12/09 05:41:39;;;;;;;29.57;11.43;;;;;;;;;;4990264;28;20456;-69
2022/12/09 05:44:06;;;;;;;31.33;11.53;;;;;;;;;;4985000;28;20510;-68
2022/12/09 05:46:32;;;;;;;30.10;10.57;;;;;;;;;;4992073;28;20455;-68
2022/12/09 05:49:00;;;;;;;36.00;10.87;;;;;;;;;;4990489;28;20808;-68
2022/12/09 05:51:27;;;;;;;38.63;11.77;;;;;;;;;;5007477;28;20468;-68
2022/12/09 05:53:54;;;;;;;32.20;10.93;;;;;;;;;;4988983;28;20477;-68
2022/12/09 05:56:23;;;;;;;30.30;10.40;;;;;;;;;;4989364;28;20479;-68
2022/12/09 05:58:50;;;;;;;28.47;11.53;;;;;;;;;;4992406;28;20462;-68
2022/12/09 06:01:17;;;;;;;31.37;11.40;;;;;;;;;;4993379;28;20438;-69
2022/12/09 06:03:50;;;;;;;35.03;11.57;;;;;;;;;;5011457;28;20497;-68
2022/12/09 06:06:18;;;;;;;31.10;11.87;;;;;;;;;;4995898;28;20440;-69
2022/12/09 06:08:46;;;;;;;34.40;12.00;;;;;;;;;;5001758;28;20444;-68
2022/12/09 06:11:14;;;;;;;33.47;11.83;;;;;;;;;;5010532;28;20478;-70
2022/12/09 06:13:44;;;;;;;36.63;12.60;;;;;;;;;;4994357;28;20431;-76
2022/12/09 06:16:10;;;;;;;34.57;13.27;;;;;;;;;;5011307;28;20477;-69
2022/12/09 06:18:37;;;;;;;33.40;13.00;;;;;;;;;;5010431;28;20460;-69
2022/12/09 06:21:05;;;;;;;34.47;12.10;;;;;;;;;;5002705;28;20483;-69
2022/12/09 06:23:33;;;;;;;35.40;12.90;;;;;;;;;;4995306;28;20427;-68
2022/12/09 06:25:59;;;;;;;34.20;12.80;;;;;;;;;;4997485;28;20467;-67
2022/12/09 06:28:26;;;;;;;37.73;12.13;;;;;;;;;;5009699;28;21023;-67
2022/12/09 06:31:10;;;;;;;32.43;11.73;;;;;;;;;;5010090;28;20922;-68
2022/12/09 06:33:37;;;;;;;39.07;12.23;;;;;;;;;;4992733;28;20449;-68
2022/12/09 06:36:21;;;;;;;35.20;13.27;;;;;;;;;;5012531;28;20497;-68
2022/12/09 06:38:48;;;;;;;38.30;12.00;;;;;;;;;;5012537;28;20437;-68
2022/12/09 06:41:32;;;;;;;38.20;12.97;;;;;;;;;;5007985;28;20463;-68
2022/12/09 06:43:59;;;;;;;39.30;13.63;;;;;;;;;;4975542;28;20427;-68
2022/12/09 06:46:43;;;;;;;33.00;12.20;;;;;;;;;;4992968;28;20415;-67
2022/12/09 06:49:10;;;;;;;37.57;12.53;;;;;;;;;;5000231;28;20447;-68
2022/12/09 06:51:37;;;;;;;36.20;12.03;;;;;;;;;;5010675;28;20471;-69
2022/12/09 06:54:05;;;;;;;40.13;12.37;;;;;;;;;;5008190;28;20479;-68
2022/12/09 06:56:32;;;;;;;37.13;13.23;;;;;;;;;;5010956;28;20492;-68
2022/12/09 06:58:59;;;;;;;36.83;12.67;;;;;;;;;;4992071;28;20982;-68
2022/12/09 07:01:26;;;;;;;36.40;12.57;;;;;;;;;;4980444;28;20435;-68
2022/12/09 07:03:53;;;;;;;31.17;11.33;;;;;;;;;;5025829;28;20461;-68
2022/12/09 07:06:38;;;;;;;34.67;10.73;;;;;;;;;;4995600;28;20440;-67
2022/12/09 07:09:06;;;;;;;23.73;8.27;;;;;;;;;;4992698;28;20800;-67
2022/12/09 07:11:50;;;;;;;39.33;12.73;;;;;;;;;;4995509;28;20451;-68
2022/12/09 07:14:17;;;;;;;12.63;5.57;;;;;;;;;;4992881;28;20431;-67
2022/12/09 07:16:44;;;;;;;26.70;11.70;;;;;;;;;;4984846;28;20557;-64
2022/12/09 07:19:18;;;;;;;29.87;12.27;;;;;;;;;;5009401;28;20476;-66
2022/12/09 07:21:45;;;;;;;30.23;11.77;;;;;;;;;;4993041;28;20442;-65
2022/12/09 07:24:13;;;;;;;33.30;11.13;;;;;;;;;;4991032;28;20431;-66
2022/12/09 07:26:40;;;;;;;33.57;10.33;;;;;;;;;;5010988;28;20416;-66
2022/12/09 07:29:07;;;;;;;33.20;12.70;;;;;;;;;;4958409;28;20439;-66
2022/12/09 07:31:34;;;;;;;31.63;12.67;;;;;;;;;;4991914;28;20884;-65
2022/12/09 07:34:01;;;;;;;36.93;14.30;;;;;;;;;;4974550;28;20477;-67
2022/12/09 07:36:45;;;;;;;36.73;12.40;;;;;;;;;;4991207;28;20495;-67
2022/12/09 07:39:12;;;;;;;36.47;13.53;;;;;;;;;;4991721;28;20485;-67
2022/12/09 07:41:56;;;;;;;39.33;15.70;;;;;;;;;;4977103;28;20809;-66
2022/12/09 07:44:27;;;;;;;42.60;15.03;;;;;;;;;;4974311;28;20636;-66
2022/12/09 07:47:11;;;;;;;36.67;12.40;;;;;;;;;;4977054;28;20823;-65
2022/12/09 07:49:38;;;;;;;34.70;12.80;;;;;;;;;;4991587;28;20438;-66
2022/12/09 07:52:05;;;;;;;36.30;14.67;;;;;;;;;;4991421;28;20442;-67
2022/12/09 07:54:32;;;;;;;44.47;16.03;;;;;;;;;;4991513;28;20438;-66
2022/12/09 07:56:59;;;;;;;45.10;13.83;;;;;;;;;;4991152;28;20849;-65
2022/12/09 07:59:26;;;;;;;41.20;15.43;;;;;;;;;;4974074;28;20430;-66
2022/12/09 08:01:53;;;;;;;36.33;13.93;;;;;;;;;;4987868;28;20490;-66
2022/12/09 08:04:20;;;;;;;32.83;12.77;;;;;;;;;;4991359;28;20438;-66
2022/12/09 08:07:04;;;;;;;36.30;14.27;;;;;;;;;;4991494;28;20424;-66
2022/12/09 08:09:32;;;;;;;29.03;12.93;;;;;;;;;;4991493;28;20424;-66
2022/12/09 08:12:16;;;;;;;31.70;12.83;;;;;;;;;;5010537;28;20465;-66
2022/12/09 08:14:43;;;;;;;40.80;15.97;;;;;;;;;;5010896;28;20745;-66
2022/12/09 08:17:28;;;;;;;38.80;14.67;;;;;;;;;;5010865;28;20564;-66
2022/12/09 08:19:55;;;;;;;32.90;13.87;;;;;;;;;;5010460;28;20435;-66
2022/12/09 08:22:22;;;;;;;28.73;13.93;;;;;;;;;;5010810;28;20489;-66
2022/12/09 08:24:49;;;;;;;29.53;13.03;;;;;;;;;;4993300;28;20509;-66
2022/12/09 08:27:15;;;;;;;30.23;13.13;;;;;;;;;;5014555;28;20533;-66
2022/12/09 08:29:42;;;;;;;30.73;14.23;;;;;;;;;;5029404;28;20434;-66
2022/12/09 08:32:09;;;;;;;27.80;11.80;;;;;;;;;;5030588;28;20771;-66
2022/12/09 08:34:36;;;;;;;29.57;13.50;;;;;;;;;;5012803;28;20813;-66
2022/12/09 08:37:03;;;;;;;25.40;12.07;;;;;;;;;;5030292;28;21018;-66
2022/12/09 08:39:30;;;;;;;28.43;13.47;;;;;;;;;;5012872;28;20419;-66
2022/12/09 08:41:59;;;;;;;49.80;25.23;;;;;;;;;;5030296;28;20998;-66
2022/12/09 08:44:44;;;;;;;33.07;18.23;;;;;;;;;;4995057;28;20457;-66
2022/12/09 08:47:10;;;;;;;51.13;26.80;;;;;;;;;;5010736;28;20424;-66
2022/12/09 08:49:38;;;;;;;35.43;18.63;;;;;;;;;;4977000;28;20439;-66
2022/12/09 08:52:04;;;;;;;39.83;19.60;;;;;;;;;;4992850;28;20442;-66
2022/12/09 08:54:32;;;;;;;39.83;18.63;;;;;;;;;;5010422;28;20818;-66
2022/12/09 08:56:58;;;;;;;34.70;17.67;;;;;;;;;;5010452;28;20473;-66
2022/12/09 08:59:26;;;;;;;34.00;16.70;;;;;;;;;;5008328;28;20435;-66
2022/12/09 09:01:53;;;;;;;37.43;14.27;;;;;;;;;;5010403;28;20451;-66
2022/12/09 09:04:21;;;;;;;36.47;16.67;;;;;;;;;;5010488;28;20990;-66
2022/12/09 09:06:48;;;;;;;37.07;15.63;;;;;;;;;;4993433;28;20462;-66
2022/12/09 09:09:16;;;;;;;29.97;14.17;;;;;;;;;;5010171;28;20522;-66
2022/12/09 09:12:00;;;;;;;32.73;15.07;;;;;;;;;;4995583;28;20428;-66
2022/12/09 09:14:27;;;;;;;42.83;17.37;;;;;;;;;;5010291;28;20423;-66
2022/12/09 09:17:11;;;;;;;40.63;16.77;;;;;;;;;;5010236;28;20605;-66
2022/12/09 09:19:38;;;;;;;35.40;16.50;;;;;;;;;;5010039;28;20434;-66
2022/12/09 09:22:05;;;;;;;43.53;16.73;;;;;;;;;;5010345;28;20526;-66
2022/12/09 09:24:32;;;;;;;35.27;16.50;;;;;;;;;;4988345;28;20452;-66
2022/12/09 09:26:59;;;;;;;39.67;17.07;;;;;;;;;;4995226;28;20503;-66
2022/12/09 09:29:26;;;;;;;44.47;17.63;;;;;;;;;;5030110;28;20437;-66
2022/12/09 09:31:53;;;;;;;41.97;18.17;;;;;;;;;;5029879;28;20445;-64
2022/12/09 09:34:22;;;;;;;41.53;17.40;;;;;;;;;;5029859;28;20506;-63
2022/12/09 09:36:50;;;;;;;45.13;19.83;;;;;;;;;;5029744;28;20470;-63
2022/12/09 09:39:17;;;;;;;44.10;19.87;;;;;;;;;;5007665;28;20486;-65
2022/12/09 09:41:44;;;;;;;37.17;17.57;;;;;;;;;;4978684;28;20924;-64
2022/12/09 09:44:30;;;;;;;30.83;15.90;;;;;;;;;;5013745;28;20431;-65
2022/12/09 09:46:57;;;;;;;33.97;16.33;;;;;;;;;;5013215;28;20435;-65
2022/12/09 09:49:28;;;;;;;34.13;17.00;;;;;;;;;;4996547;28;20518;-65
2022/12/09 09:51:56;;;;;;;36.23;18.10;;;;;;;;;;5012991;28;20459;-65
2022/12/09 09:54:23;;;;;;;38.00;19.43;;;;;;;;;;5013617;28;20538;-65
2022/12/09 09:56:55;;;;;;;45.47;20.93;;;;;;;;;;5008213;28;20470;-66
2022/12/09 09:59:29;;;;;;;44.97;22.27;;;;;;;;;;4976501;28;20432;-66
2022/12/09 10:02:16;;;;;;;53.37;25.40;;;;;;;;;;4993758;28;20444;-66
2022/12/09 10:04:46;;;;;;;59.57;28.87;;;;;;;;;;4960689;28;20279;-65
2022/12/09 10:07:17;;;;;;;61.20;28.20;;;;;;;;;;4993725;28;20463;-66
2022/12/09 10:09:47;;;;;;;59.93;26.83;;;;;;;;;;4976275;28;20442;-66
2022/12/09 10:12:34;;;;;;;52.20;26.53;;;;;;;;;;4993276;28;20434;-65
2022/12/09 10:15:11;;;;;;;50.67;24.67;;;;;;;;;;4993532;28;20512;-67
2022/12/09 10:18:01;;;;;;;42.63;23.60;;;;;;;;;;4993385;28;20471;-66
2022/12/09 10:20:29;;;;;;;40.10;20.90;;;;;;;;;;4974681;28;20452;-66
2022/12/09 10:23:14;;;;;;;40.00;21.03;;;;;;;;;;4978627;28;20188;-66
2022/12/09 10:25:51;;;;;;;36.20;18.87;;;;;;;;;;4976092;28;20597;-65
2022/12/09 10:28:22;;;;;;;42.60;20.93;;;;;;;;;;5002229;28;20425;-66
2022/12/09 10:30:49;;;;;;;45.57;22.93;;;;;;;;;;4998495;28;20439;-66
2022/12/09 10:33:19;;;;;;;42.60;22.53;;;;;;;;;;4999431;28;20464;-66
2022/12/09 10:36:04;;;;;;;39.43;20.70;;;;;;;;;;4978648;28;20435;-66
2022/12/09 10:38:31;;;;;;;39.23;20.87;;;;;;;;;;4975992;28;20792;-66
2022/12/09 10:43:33;;;;;;;39.80;19.37;;;;;;;;;;4978105;28;20671;-66
2022/12/09 10:44:32;;;;;;;36.57;19.67;;;;;;;;;;4978621;28;20676;-66
2022/12/09 10:47:03;;;;;;;37.87;20.53;;;;;;;;;;4990905;28;20201;-67
2022/12/09 10:49:30;;;;;;;39.67;19.93;;;;;;;;;;4975376;28;20189;-67
2022/12/09 10:51:57;;;;;;;41.83;21.53;;;;;;;;;;4991846;28;20607;-67
2022/12/09 10:54:24;;;;;;;35.27;20.57;;;;;;;;;;4992289;28;20196;-67
2022/12/09 10:57:00;;;;;;;39.53;22.07;;;;;;;;;;4992526;28;20200;-67
2022/12/09 11:00:04;;;;;;;41.83;22.33;;;;;;;;;;4991617;28;20176;-67
2022/12/09 11:02:32;;;;;;;43.33;22.43;;;;;;;;;;4992597;28;20435;-67
2022/12/09 11:05:18;;;;;;;45.47;24.57;;;;;;;;;;4992612;28;20238;-67
2022/12/09 11:07:48;;;;;;;46.63;24.50;;;;;;;;;;4992407;28;20193;-67
2022/12/09 11:10:17;;;;;;;53.07;26.80;;;;;;;;;;4979100;28;20201;-67
2022/12/09 11:12:45;;;;;;;54.03;26.10;;;;;;;;;;4975617;28;20623;-67
2022/12/09 11:15:28;;;;;;;61.20;28.93;;;;;;;;;;4975156;28;20455;-66
2022/12/09 11:18:15;;;;;;;59.37;29.10;;;;;;;;;;4992057;28;20819;-66
2022/12/09 11:20:43;;;;;;;59.57;29.00;;;;;;;;;;4974826;28;20439;-67
2022/12/09 11:23:27;;;;;;;68.13;31.13;;;;;;;;;;4977544;28;20926;-66
2022/12/09 11:26:01;;;;;;;62.07;29.90;;;;;;;;;;4974820;28;20915;-67
2022/12/09 11:28:29;;;;;;;63.23;29.67;;;;;;;;;;5021081;28;20457;-67
2022/12/09 11:30:57;;;;;;;59.07;30.23;;;;;;;;;;5024187;28;20448;-67
2022/12/09 11:33:48;;;;;;;55.03;27.60;;;;;;;;;;4997094;28;20437;-67
2022/12/09 11:36:33;;;;;;;53.03;26.43;;;;;;;;;;5011430;28;20459;-67
2022/12/09 11:39:24;;;;;;;57.40;26.67;;;;;;;;;;4994845;28;20537;-67
2022/12/09 11:42:15;;;;;;;51.97;24.83;;;;;;;;;;5011396;28;20430;-67
2022/12/09 11:45:01;;;;;;;49.93;23.13;;;;;;;;;;4998603;28;21038;-67
2022/12/09 11:47:41;;;;;;;50.50;23.57;;;;;;;;;;4991993;28;20934;-67
2022/12/09 11:50:31;;;;;;;44.33;21.57;;;;;;;;;;4977368;28;21074;-67
2022/12/09 11:53:11;;;;;;;44.10;21.47;;;;;;;;;;4974777;28;20431;-67
2022/12/09 11:55:59;;;;;;;42.90;21.00;;;;;;;;;;4991316;28;20428;-67
2022/12/09 11:58:35;;;;;;;41.67;21.07;;;;;;;;;;4974460;28;20476;-67
2022/12/09 12:01:03;;;;;;;41.63;20.97;;;;;;;;;;4974167;28;20522;-67
2022/12/09 12:03:38;;;;;;;42.83;21.40;;;;;;;;;;4991186;28;20490;-68
2022/12/09 12:06:13;;;;;;;46.00;22.77;;;;;;;;;;4974385;28;20464;-67
2022/12/09 12:08:45;;;;;;;46.23;22.87;;;;;;;;;;4974413;28;20458;-67
2022/12/09 12:11:13;;;;;;;46.83;22.80;;;;;;;;;;4974508;28;20436;-67
2022/12/09 12:13:45;;;;;;;46.43;22.73;;;;;;;;;;4957970;28;20457;-67
2022/12/09 12:16:28;;;;;;;42.97;22.23;;;;;;;;;;4976596;28;20416;-67
2022/12/09 12:19:06;;;;;;;62.53;27.70;;;;;;;;;;4991441;28;20428;-67
2022/12/09 12:21:54;;;;;;;79.47;32.03;;;;;;;;;;4990895;28;20450;-67
2022/12/09 12:24:29;;;;;;;52.37;25.47;;;;;;;;;;4991371;28;20439;-67
2022/12/09 12:27:34;;;;;;;46.97;24.00;;;;;;;;;;4999585;28;20434;-67
2022/12/09 12:30:03;;;;;;;75.57;29.07;;;;;;;;;;4990457;28;20541;-67
2022/12/09 12:32:30;;;;;;;56.33;26.10;;;;;;;;;;5030226;28;20437;-67
2022/12/09 12:35:00;;;;;;;44.97;22.10;;;;;;;;;;5030399;28;20430;-67
2022/12/09 12:37:29;;;;;;;50.77;22.00;;;;;;;;;;5020899;28;20879;-67
2022/12/09 12:39:56;;;;;;;46.17;21.23;;;;;;;;;;4973912;28;20527;-66
2022/12/09 12:42:28;;;;;;;37.07;18.53;;;;;;;;;;4991124;28;20486;-67
2022/12/09 12:47:46;;;;;;;10.93;6.23;;;;;;;;;;4976420;28;20450;-67
2022/12/09 12:50:20;;;;;;;13.87;7.33;;;;;;;;;;4973743;28;20474;-67
2022/12/09 12:52:49;;;;;;;18.43;8.43;;;;;;;;;;4973251;28;20529;-67
2022/12/09 12:55:40;;;;;;;15.17;8.13;;;;;;;;;;4990705;28;20455;-67
2022/12/09 12:58:26;;;;;;;14.40;7.53;;;;;;;;;;4973407;28;20898;-67
2022/12/09 13:01:04;;;;;;;14.63;7.40;;;;;;;;;;4991114;28;20475;-67
2022/12/09 13:03:43;;;;;;;14.73;7.63;;;;;;;;;;4989641;28;20819;-67
2022/12/09 13:06:10;;;;;;;12.80;7.83;;;;;;;;;;4990960;28;20522;-67
2022/12/09 13:08:45;;;;;;;14.17;7.77;;;;;;;;;;4973252;28;20547;-67
2022/12/09 13:11:27;;;;;;;13.80;7.80;;;;;;;;;;4972944;28;21017;-67
2022/12/09 13:13:54;;;;;;;14.03;7.57;;;;;;;;;;4990629;28;20440;-67
2022/12/09 13:16:28;;;;;;;16.57;8.17;;;;;;;;;;4992598;28;20478;-67
2022/12/09 13:19:07;;;;;;;14.43;8.23;;;;;;;;;;4977023;28;20506;-67
2022/12/09 13:21:33;;;;;;;16.60;8.67;;;;;;;;;;4977011;28;20435;-67
2022/12/09 13:24:16;;;;;;;16.13;9.53;;;;;;;;;;4977281;28;21010;-67
2022/12/09 13:26:46;;;;;;;19.10;9.83;;;;;;;;;;4977906;28;20454;-67
2022/12/09 13:29:12;;;;;;;19.83;11.03;;;;;;;;;;5033702;28;20489;-67
2022/12/09 13:31:44;;;;;;;26.73;14.53;;;;;;;;;;5033566;28;20949;-67
2022/12/09 13:34:26;;;;;;;25.77;15.47;;;;;;;;;;5013727;28;20789;-67
2022/12/09 13:36:53;;;;;;;29.60;16.40;;;;;;;;;;4994181;28;20431;-67
2022/12/09 13:39:38;;;;;;;27.20;14.60;;;;;;;;;;4976913;28;20823;-67
2022/12/09 13:45:13;;;;;;;20.73;11.03;;;;;;;;;;4992955;28;20493;-67
2022/12/09 13:47:59;;;;;;;18.53;11.17;;;;;;;;;;4979106;28;20931;-67
2022/12/09 13:50:26;;;;;;;18.07;10.87;;;;;;;;;;4993876;28;20459;-67
2022/12/09 13:52:54;;;;;;;17.10;10.73;;;;;;;;;;4993245;28;20436;-67
2022/12/09 13:55:24;;;;;;;18.67;11.30;;;;;;;;;;4976416;28;20416;-67
2022/12/09 13:58:03;;;;;;;20.23;11.50;;;;;;;;;;4993684;28;20570;-67
2022/12/09 14:00:30;;;;;;;21.73;12.00;;;;;;;;;;4976485;28;20435;-67
2022/12/09 14:02:57;;;;;;;22.00;12.17;;;;;;;;;;4959685;28;21141;-67
2022/12/09 14:05:28;;;;;;;19.50;11.37;;;;;;;;;;4976763;28;20432;-67
2022/12/09 14:07:57;;;;;;;22.27;12.17;;;;;;;;;;4976092;28;20494;-67
2022/12/09 14:10:33;;;;;;;25.17;15.33;;;;;;;;;;4964183;28;20486;-67
2022/12/09 14:13:29;;;;;;;22.90;13.50;;;;;;;;;;4981287;28;20435;-67
2022/12/09 14:16:16;;;;;;;22.67;12.87;;;;;;;;;;5012963;28;20442;-66
2022/12/09 14:18:43;;;;;;;25.77;13.80;;;;;;;;;;4995551;28;20479;-66
2022/12/09 14:21:16;;;;;;;24.30;14.00;;;;;;;;;;4995580;28;20450;-67
2022/12/09 14:24:02;;;;;;;25.37;14.60;;;;;;;;;;5012734;28;20431;-67
2022/12/09 14:26:52;;;;;;;26.90;14.90;;;;;;;;;;4996192;28;20430;-66
2022/12/09 14:29:51;;;;;;;27.40;15.20;;;;;;;;;;5031978;28;20940;-67
2022/12/09 14:32:24;;;;;;;25.37;13.33;;;;;;;;;;4989111;28;20450;-67
2022/12/09 14:35:09;;;;;;;26.73;13.43;;;;;;;;;;5032436;28;20492;-67
2022/12/09 14:38:02;;;;;;;25.60;14.10;;;;;;;;;;5017499;28;20481;-67
2022/12/09 14:40:47;;;;;;;27.40;15.57;;;;;;;;;;5032295;28;20441;-67
2022/12/09 14:43:33;;;;;;;28.43;14.87;;;;;;;;;;5023550;28;20575;-68
2022/12/09 14:46:00;;;;;;;29.07;14.90;;;;;;;;;;4991992;28;20459;-67
2022/12/09 14:48:31;;;;;;;23.37;14.43;;;;;;;;;;4992853;28;20436;-67
2022/12/09 14:51:05;;;;;;;31.27;16.00;;;;;;;;;;4975143;28;20463;-67
2022/12/09 14:53:31;;;;;;;25.07;14.63;;;;;;;;;;4975349;28;20494;-67
2022/12/09 14:55:58;;;;;;;28.17;14.83;;;;;;;;;;4975508;28;20571;-67